createdAt,value
2018-01-24T00:00:02.825Z,2.50
2018-01-24T00:02:31.098Z,3.27
2018-01-24T00:04:59.410Z,3.53
2018-01-24T00:07:27.676Z,3.10
2018-01-24T00:09:55.979Z,3.70
2018-01-24T00:12:24.246Z,2.73
2018-01-24T00:14:52.560Z,2.70
2018-01-24T00:17:20.835Z,2.80
2018-01-24T00:19:49.157Z,3.20
2018-01-24T00:22:17.444Z,3.10
2018-01-24T00:24:45.727Z,2.03
2018-01-24T00:27:14.058Z,3.70
2018-01-24T00:29:42.378Z,3.62
2018-01-24T00:32:10.658Z,3.53
2018-01-24T00:34:38.970Z,3.15
2018-01-24T00:37:07.275Z,3.37
2018-01-24T00:39:35.570Z,3.37
2018-01-24T00:42:04.840Z,2.90
2018-01-24T00:44:33.131Z,2.43
2018-01-24T00:47:01.433Z,3.77
2018-01-24T00:49:29.751Z,2.80
2018-01-24T00:51:58.034Z,3.07
2018-01-24T00:54:26.282Z,3.80
2018-01-24T00:56:54.565Z,3.20
2018-01-24T00:59:22.868Z,3.53
2018-01-24T01:01:51.214Z,3.50
2018-01-24T01:04:19.530Z,3.83
2018-01-24T01:06:47.825Z,4.07
2018-01-24T01:09:16.143Z,3.30
2018-01-24T01:11:44.934Z,2.97
2018-01-24T01:14:13.305Z,3.60
2018-01-24T01:16:41.575Z,3.10
2018-01-24T01:19:09.864Z,3.10
2018-01-24T01:21:38.132Z,3.23
2018-01-24T01:24:07.550Z,3.73
2018-01-24T01:26:35.811Z,3.27
2018-01-24T01:29:05.002Z,3.78
2018-01-24T01:31:33.314Z,3.00
2018-01-24T01:34:01.675Z,2.93
2018-01-24T01:36:30.044Z,2.97
2018-01-24T01:38:58.327Z,3.37
2018-01-24T01:41:26.679Z,3.40
2018-01-24T01:43:54.943Z,3.10
2018-01-24T01:46:23.255Z,3.33
2018-01-24T01:48:51.531Z,2.40
2018-01-24T01:51:19.857Z,3.95
2018-01-24T01:53:48.126Z,3.37
2018-01-24T01:56:16.429Z,3.17
2018-01-24T01:58:44.721Z,3.67
2018-01-24T02:01:13.018Z,2.78
2018-01-24T02:03:41.259Z,3.10
2018-01-24T02:06:09.615Z,3.42
2018-01-24T02:08:37.841Z,3.50
2018-01-24T02:11:06.127Z,3.70
2018-01-24T02:13:34.510Z,3.28
2018-01-24T02:16:02.779Z,3.03
2018-01-24T02:18:31.101Z,2.77
2018-01-24T02:20:59.337Z,3.27
2018-01-24T02:23:27.648Z,3.23
2018-01-24T02:25:55.918Z,3.40
2018-01-24T02:28:24.226Z,2.73
2018-01-24T02:30:52.478Z,2.20
2018-01-24T02:33:20.821Z,2.60
2018-01-24T02:35:49.075Z,2.90
2018-01-24T02:38:29.209Z,2.60
2018-01-24T02:40:57.476Z,3.00
2018-01-24T02:43:25.765Z,2.80
2018-01-24T02:45:54.039Z,2.92
2018-01-24T02:48:22.316Z,2.70
2018-01-24T02:50:50.627Z,2.30
2018-01-24T02:53:18.918Z,2.45
2018-01-24T02:55:47.218Z,2.40
2018-01-24T02:58:15.522Z,2.35
2018-01-24T03:00:43.831Z,2.30
2018-01-24T03:03:12.102Z,2.90
2018-01-24T03:05:40.490Z,2.37
2018-01-24T03:08:08.786Z,2.53
2018-01-24T03:10:37.900Z,2.67
2018-01-24T03:13:06.173Z,2.40
2018-01-24T03:15:34.471Z,2.70
2018-01-24T03:18:02.746Z,2.70
2018-01-24T03:20:31.069Z,2.63
2018-01-24T03:22:59.375Z,2.53
2018-01-24T03:25:27.621Z,2.60
2018-01-24T03:27:55.958Z,2.75
2018-01-24T03:30:24.219Z,2.43
2018-01-24T03:32:52.560Z,2.30
2018-01-24T03:35:20.861Z,2.73
2018-01-24T03:37:49.151Z,2.73
2018-01-24T03:40:17.454Z,2.80
2018-01-24T03:42:45.771Z,2.20
2018-01-24T03:45:14.071Z,3.20
2018-01-24T03:47:42.393Z,2.87
2018-01-24T03:50:10.703Z,2.70
2018-01-24T03:52:39.012Z,2.83
2018-01-24T03:55:07.285Z,2.67
2018-01-24T03:57:35.564Z,2.30
2018-01-24T04:00:03.862Z,2.50
2018-01-24T04:02:32.135Z,2.30
2018-01-24T04:05:00.426Z,2.20
2018-01-24T04:07:28.708Z,2.50
2018-01-24T04:09:56.987Z,2.90
2018-01-24T04:12:25.259Z,2.47
2018-01-24T04:14:53.568Z,1.90
2018-01-24T04:17:21.890Z,2.40
2018-01-24T04:19:50.168Z,2.77
2018-01-24T04:22:18.448Z,2.30
2018-01-24T04:24:46.713Z,1.97
2018-01-24T04:27:15.943Z,2.40
2018-01-24T04:29:44.212Z,2.60
2018-01-24T04:32:12.643Z,2.40
2018-01-24T04:34:40.910Z,2.63
2018-01-24T04:37:09.220Z,2.50
2018-01-24T04:39:37.739Z,2.53
2018-01-24T04:42:06.066Z,2.87
2018-01-24T04:44:34.359Z,2.90
2018-01-24T04:47:02.638Z,2.43
2018-01-24T04:49:30.938Z,2.77
2018-01-24T04:51:59.198Z,2.20
2018-01-24T04:54:27.487Z,2.40
2018-01-24T04:56:55.754Z,2.40
2018-01-24T04:59:24.043Z,2.10
2018-01-24T05:01:52.321Z,2.37
2018-01-24T05:04:20.626Z,2.00
2018-01-24T05:06:48.956Z,2.58
2018-01-24T05:09:17.208Z,2.80
2018-01-24T05:11:45.534Z,2.90
2018-01-24T05:14:13.821Z,2.37
2018-01-24T05:16:42.112Z,2.93
2018-01-24T05:19:10.378Z,2.40
2018-01-24T05:21:38.685Z,3.03
2018-01-24T05:24:07.312Z,3.20
2018-01-24T05:26:35.603Z,3.00
2018-01-24T05:29:04.772Z,3.00
2018-01-24T05:31:33.084Z,3.27
2018-01-24T05:34:01.384Z,3.20
2018-01-24T05:36:30.427Z,3.53
2018-01-24T05:38:59.047Z,3.40
2018-01-24T05:41:27.827Z,3.27
2018-01-24T05:43:56.058Z,3.37
2018-01-24T05:46:24.377Z,4.23
2018-01-24T05:48:52.667Z,3.33
2018-01-24T05:51:20.956Z,2.87
2018-01-24T05:53:49.228Z,3.40
2018-01-24T05:56:17.532Z,3.10
2018-01-24T05:58:45.786Z,3.20
2018-01-24T06:01:14.135Z,3.40
2018-01-24T06:03:42.414Z,3.70
2018-01-24T06:06:10.781Z,2.83
2018-01-24T06:08:39.070Z,2.60
2018-01-24T06:11:07.338Z,3.10
2018-01-24T06:13:35.635Z,3.00
2018-01-24T06:16:04.059Z,3.07
2018-01-24T06:18:32.351Z,3.57
2018-01-24T06:21:00.608Z,2.87
2018-01-24T06:23:29.179Z,3.17
2018-01-24T06:25:57.464Z,3.47
2018-01-24T06:28:25.745Z,2.87
2018-01-24T06:30:54.375Z,2.80
2018-01-24T06:33:22.669Z,3.70
2018-01-24T06:35:50.989Z,2.67
2018-01-24T06:38:19.260Z,3.63
2018-01-24T06:40:47.566Z,2.80
2018-01-24T06:43:15.826Z,4.20
2018-01-24T06:45:44.151Z,3.30
2018-01-24T06:48:12.414Z,2.78
2018-01-24T06:50:40.691Z,3.23
2018-01-24T06:53:08.963Z,2.53
2018-01-24T06:55:37.289Z,3.67
2018-01-24T06:58:05.663Z,2.90
2018-01-24T07:00:33.952Z,3.03
2018-01-24T07:03:02.780Z,3.17
2018-01-24T07:05:31.032Z,2.90
2018-01-24T07:07:59.299Z,3.30
2018-01-24T07:10:27.597Z,3.40
2018-01-24T07:13:07.696Z,3.27
2018-01-24T07:15:35.978Z,3.17
2018-01-24T07:18:04.821Z,3.50
2018-01-24T07:20:33.883Z,3.37
2018-01-24T07:23:02.203Z,2.87
2018-01-24T07:25:30.531Z,3.33
2018-01-24T07:28:01.654Z,2.97
2018-01-24T07:30:29.942Z,2.60
2018-01-24T07:32:58.242Z,2.20
2018-01-24T07:35:26.519Z,1.90
2018-01-24T07:37:54.839Z,2.17
2018-01-24T07:40:23.101Z,1.77
2018-01-24T07:42:51.391Z,2.20
2018-01-24T07:45:19.733Z,2.20
2018-01-24T07:47:47.994Z,2.00
2018-01-24T07:50:16.271Z,1.90
2018-01-24T07:52:44.574Z,2.30
2018-01-24T07:55:12.874Z,2.47
2018-01-24T07:57:41.216Z,2.33
2018-01-24T08:00:09.601Z,2.45
2018-01-24T08:02:37.887Z,3.03
2018-01-24T08:05:06.219Z,2.57
2018-01-24T08:07:34.498Z,2.27
2018-01-24T08:10:02.815Z,2.00
2018-01-24T08:12:31.198Z,2.70
2018-01-24T08:14:59.484Z,3.00
2018-01-24T08:17:27.829Z,2.40
2018-01-24T08:19:56.124Z,3.03
2018-01-24T08:22:24.397Z,1.83
2018-01-24T08:24:52.663Z,1.97
2018-01-24T08:27:20.945Z,1.80
2018-01-24T08:29:49.243Z,2.53
2018-01-24T08:32:17.567Z,2.20
2018-01-24T08:34:45.874Z,1.90
2018-01-24T08:37:14.182Z,1.67
2018-01-24T08:39:42.487Z,2.00
2018-01-24T08:42:10.793Z,1.90
2018-01-24T08:44:39.068Z,1.60
2018-01-24T08:47:07.430Z,1.67
2018-01-24T08:49:36.352Z,1.47
2018-01-24T08:52:06.151Z,1.70
2018-01-24T08:54:34.438Z,1.50
2018-01-24T08:57:02.729Z,1.40
2018-01-24T08:59:31.174Z,1.35
2018-01-24T09:01:59.493Z,1.60
2018-01-24T09:04:27.771Z,1.67
2018-01-24T09:06:56.056Z,1.33
2018-01-24T09:09:24.427Z,1.57
2018-01-24T09:11:52.779Z,2.07
2018-01-24T09:14:21.092Z,1.60
2018-01-24T09:16:49.371Z,1.83
2018-01-24T09:19:17.871Z,1.60
2018-01-24T09:21:46.191Z,1.67
2018-01-24T09:24:14.520Z,1.20
2018-01-24T09:26:42.819Z,1.40
2018-01-24T09:29:11.141Z,2.10
2018-01-24T09:31:39.501Z,1.60
2018-01-24T09:34:07.799Z,2.40
2018-01-24T09:36:36.075Z,1.77
2018-01-24T09:39:04.811Z,1.85
2018-01-24T09:41:33.116Z,1.33
2018-01-24T09:44:01.416Z,1.50
2018-01-24T09:46:29.678Z,1.87
2018-01-24T09:48:58.006Z,1.57
2018-01-24T09:51:26.553Z,1.80
2018-01-24T09:53:54.830Z,1.50
2018-01-24T09:56:23.107Z,1.30
2018-01-24T09:58:51.375Z,1.70
2018-01-24T10:01:19.760Z,1.50
2018-01-24T10:03:47.995Z,1.57
2018-01-24T10:06:16.795Z,1.50
2018-01-24T10:08:45.121Z,2.10
2018-01-24T10:11:13.398Z,1.33
2018-01-24T10:13:41.708Z,1.80
2018-01-24T10:16:09.965Z,1.77
2018-01-24T10:18:38.295Z,2.27
2018-01-24T10:21:06.571Z,1.70
2018-01-24T10:23:34.854Z,3.47
2018-01-24T10:26:03.133Z,1.67
2018-01-24T10:28:31.463Z,2.00
2018-01-24T10:31:00.725Z,2.20
2018-01-24T10:33:35.080Z,1.90
2018-01-24T10:36:04.170Z,1.97
2018-01-24T10:38:32.454Z,1.90
2018-01-24T10:41:00.777Z,2.10
2018-01-24T10:43:29.065Z,1.70
2018-01-24T10:45:57.316Z,1.80
2018-01-24T10:48:25.609Z,1.80
2018-01-24T10:50:53.907Z,2.63
2018-01-24T10:53:22.537Z,2.20
2018-01-24T10:55:50.823Z,2.20
2018-01-24T10:58:19.110Z,2.17
2018-01-24T11:00:48.254Z,2.37
2018-01-24T11:03:16.615Z,2.28
2018-01-24T11:05:44.899Z,2.23
2018-01-24T11:08:13.228Z,2.50
2018-01-24T11:10:41.559Z,2.80
2018-01-24T11:13:09.868Z,1.95
2018-01-24T11:15:38.266Z,2.40
2018-01-24T11:18:06.631Z,2.57
2018-01-24T11:20:34.863Z,2.80
2018-01-24T11:23:03.180Z,1.73
2018-01-24T11:25:31.512Z,2.00
2018-01-24T11:27:59.768Z,2.63
2018-01-24T11:30:28.065Z,2.33
2018-01-24T11:32:56.319Z,1.90
2018-01-24T11:35:24.640Z,2.30
2018-01-24T11:37:52.942Z,1.90
2018-01-24T11:40:21.203Z,2.30
2018-01-24T11:42:49.579Z,2.33
2018-01-24T11:45:17.859Z,2.30
2018-01-24T11:47:46.119Z,2.80
2018-01-24T11:50:14.483Z,2.77
2018-01-24T11:52:42.786Z,2.53
2018-01-24T11:55:11.156Z,2.35
2018-01-24T11:57:39.420Z,2.40
2018-01-24T12:00:07.823Z,2.63
2018-01-24T12:02:36.134Z,2.33
2018-01-24T12:05:05.331Z,1.90
2018-01-24T12:07:33.622Z,2.23
2018-01-24T12:10:01.935Z,2.00
2018-01-24T12:12:30.236Z,2.40
2018-01-24T12:14:58.503Z,2.53
2018-01-24T12:17:26.830Z,2.57
2018-01-24T12:19:55.092Z,2.43
2018-01-24T12:22:23.400Z,2.40
2018-01-24T12:24:51.714Z,2.20
2018-01-24T12:27:20.079Z,2.10
2018-01-24T12:29:48.403Z,2.60
2018-01-24T12:32:19.437Z,2.27
2018-01-24T12:34:47.744Z,2.67
2018-01-24T12:37:16.052Z,2.50
2018-01-24T12:39:44.348Z,2.50
2018-01-24T12:42:12.744Z,2.70
2018-01-24T12:44:41.069Z,2.35
2018-01-24T12:47:09.343Z,2.28
2018-01-24T12:49:38.776Z,2.40
2018-01-24T12:52:07.334Z,2.10
2018-01-24T12:54:35.693Z,3.33
2018-01-24T12:57:03.976Z,2.50
2018-01-24T12:59:32.303Z,3.30
2018-01-24T13:02:00.578Z,2.40
2018-01-24T13:04:29.006Z,2.20
2018-01-24T13:06:57.472Z,3.10
2018-01-24T13:09:25.785Z,2.87
2018-01-24T13:11:54.087Z,3.10
2018-01-24T13:14:23.211Z,2.67
2018-01-24T13:16:51.497Z,4.77
2018-01-24T13:19:19.849Z,3.70
2018-01-24T13:21:48.134Z,4.10
2018-01-24T13:24:16.394Z,4.35
2018-01-24T13:26:44.744Z,3.67
2018-01-24T13:29:13.025Z,7.03
2018-01-24T13:31:41.336Z,5.40
2018-01-24T13:34:09.613Z,4.00
2018-01-24T13:36:37.894Z,4.10
2018-01-24T13:39:06.240Z,3.93
2018-01-24T13:41:34.632Z,3.87
2018-01-24T13:44:03.083Z,3.72
2018-01-24T13:46:31.342Z,3.27
2018-01-24T13:49:00.658Z,2.77
2018-01-24T13:51:28.932Z,2.40
2018-01-24T13:53:57.271Z,3.30
2018-01-24T13:56:25.636Z,2.50
2018-01-24T13:58:53.910Z,2.47
2018-01-24T14:01:22.239Z,2.83
2018-01-24T14:03:50.474Z,2.50
2018-01-24T14:06:18.865Z,2.78
2018-01-24T14:08:47.174Z,2.47
2018-01-24T14:11:15.429Z,2.67
2018-01-24T14:13:43.884Z,2.30
2018-01-24T14:16:12.773Z,2.20
2018-01-24T14:18:41.070Z,2.30
2018-01-24T14:21:09.332Z,2.08
2018-01-24T14:23:37.663Z,1.93
2018-01-24T14:26:05.911Z,2.10
2018-01-24T14:28:34.214Z,2.00
2018-01-24T14:31:03.487Z,1.70
2018-01-24T14:33:31.790Z,2.00
2018-01-24T14:36:00.084Z,1.90
2018-01-24T14:38:28.445Z,2.30
2018-01-24T14:40:56.737Z,1.80
2018-01-24T14:43:25.059Z,1.57
2018-01-24T14:45:53.392Z,1.30
2018-01-24T14:48:22.405Z,1.30
2018-01-24T14:50:50.659Z,1.30
2018-01-24T14:53:18.969Z,0.93
2018-01-24T14:55:47.253Z,1.10
2018-01-24T14:58:15.539Z,1.23
2018-01-24T15:00:44.127Z,1.20
2018-01-24T15:03:12.675Z,1.00
2018-01-24T15:05:40.972Z,1.20
2018-01-24T15:08:09.258Z,2.00
2018-01-24T15:10:37.747Z,1.73
2018-01-24T15:13:06.040Z,1.20
2018-01-24T15:15:34.347Z,1.17
2018-01-24T15:18:02.616Z,1.00
2018-01-24T15:20:31.037Z,1.20
2018-01-24T15:22:59.333Z,1.63
2018-01-24T15:25:27.618Z,1.40
2018-01-24T15:27:55.909Z,1.30
2018-01-24T15:30:24.219Z,1.20
2018-01-24T15:32:52.507Z,1.03
2018-01-24T15:35:21.691Z,1.10
2018-01-24T15:37:50.015Z,1.10
2018-01-24T15:40:18.331Z,2.47
2018-01-24T15:42:46.620Z,1.30
2018-01-24T15:45:14.903Z,1.10
2018-01-24T15:47:43.202Z,1.20
2018-01-24T15:50:11.475Z,1.50
2018-01-24T15:52:39.767Z,1.40
2018-01-24T15:55:08.041Z,1.23
2018-01-24T15:57:36.787Z,1.53
2018-01-24T16:00:05.131Z,1.80
2018-01-24T16:02:33.466Z,1.60
2018-01-24T16:05:02.005Z,1.73
2018-01-24T16:07:30.481Z,1.63
2018-01-24T16:09:59.177Z,1.93
2018-01-24T16:12:27.736Z,2.00
2018-01-24T16:14:56.020Z,1.70
2018-01-24T16:17:24.366Z,1.37
2018-01-24T16:19:52.656Z,1.70
2018-01-24T16:22:20.958Z,1.60
2018-01-24T16:24:49.221Z,1.70
2018-01-24T16:27:17.519Z,2.67
2018-01-24T16:29:45.836Z,1.57
2018-01-24T16:32:14.150Z,2.03
2018-01-24T16:34:42.512Z,2.07
2018-01-24T16:37:10.926Z,2.33
2018-01-24T16:39:39.163Z,2.40
2018-01-24T16:42:07.543Z,2.77
2018-01-24T16:44:35.809Z,2.40
2018-01-24T16:47:07.120Z,1.78
2018-01-24T16:49:35.387Z,1.80
2018-01-24T16:52:04.062Z,1.77
2018-01-24T16:54:32.407Z,2.30
2018-01-24T16:57:00.690Z,2.23
2018-01-24T16:59:29.097Z,1.97
2018-01-24T17:01:57.368Z,1.87
2018-01-24T17:04:25.678Z,2.00
2018-01-24T17:06:53.939Z,2.50
2018-01-24T17:09:22.225Z,2.05
2018-01-24T17:11:50.489Z,2.77
2018-01-24T17:14:18.882Z,2.67
2018-01-24T17:16:47.133Z,2.57
2018-01-24T17:19:15.498Z,3.10
2018-01-24T17:21:43.760Z,3.30
2018-01-24T17:24:12.072Z,3.70
2018-01-24T17:26:48.778Z,3.70
2018-01-24T17:29:17.094Z,2.92
2018-01-24T17:31:45.476Z,3.43
2018-01-24T17:34:14.163Z,3.20
2018-01-24T17:36:42.469Z,3.10
2018-01-24T17:39:10.766Z,3.83
2018-01-24T17:41:39.090Z,3.47
2018-01-24T17:44:07.466Z,3.30
2018-01-24T17:46:35.722Z,5.57
2018-01-24T17:49:04.216Z,6.23
2018-01-24T17:51:32.504Z,5.97
2018-01-24T17:54:03.504Z,6.10
2018-01-24T17:56:31.996Z,5.03
2018-01-24T17:59:02.735Z,5.60
2018-01-24T18:01:31.262Z,6.17
2018-01-24T18:03:59.767Z,5.60
2018-01-24T18:06:28.101Z,6.37
2018-01-24T18:08:56.328Z,6.13
2018-01-24T18:11:24.615Z,3.90
2018-01-24T18:13:52.926Z,3.17
2018-01-24T18:16:21.304Z,3.53
2018-01-24T18:18:49.910Z,3.30
2018-01-24T18:21:18.180Z,3.67
2018-01-24T18:23:46.464Z,3.83
2018-01-24T18:26:14.787Z,3.90
2018-01-24T18:28:43.050Z,4.13
2018-01-24T18:31:11.337Z,3.93
2018-01-24T18:33:39.644Z,3.50
2018-01-24T18:36:07.953Z,2.97
2018-01-24T18:38:36.647Z,4.27
2018-01-24T18:41:05.236Z,4.22
2018-01-24T18:43:40.931Z,3.95
2018-01-24T18:46:09.240Z,3.73
2018-01-24T18:48:37.511Z,3.28
2018-01-24T18:51:06.042Z,3.42
2018-01-24T18:53:34.359Z,3.40
2018-01-24T18:56:02.672Z,3.77
2018-01-24T18:58:32.042Z,3.37
2018-01-24T19:01:03.266Z,3.17
2018-01-24T19:03:39.489Z,2.90
2018-01-24T19:06:08.783Z,2.83
2018-01-24T19:08:37.100Z,4.27
2018-01-24T19:11:06.669Z,2.90
2018-01-24T19:13:34.944Z,2.83
2018-01-24T19:16:03.254Z,2.77
2018-01-24T19:18:31.531Z,2.90
2018-01-24T19:20:59.822Z,3.17
2018-01-24T19:23:28.091Z,3.00
2018-01-24T19:25:57.527Z,3.10
2018-01-24T19:28:25.789Z,2.83
2018-01-24T19:30:54.090Z,2.60
2018-01-24T19:33:22.387Z,2.60
2018-01-24T19:35:50.654Z,3.03
2018-01-24T19:38:18.977Z,2.92
2018-01-24T19:40:47.270Z,3.13
2018-01-24T19:43:15.584Z,3.42
2018-01-24T19:45:43.858Z,3.17
2018-01-24T19:48:12.176Z,2.90
2018-01-24T19:50:40.435Z,2.57
2018-01-24T19:53:11.857Z,2.90
2018-01-24T19:55:41.340Z,2.83
2018-01-24T19:58:09.816Z,2.97
2018-01-24T20:00:38.189Z,2.90
2018-01-24T20:03:06.454Z,3.17
2018-01-24T20:05:34.874Z,2.27
2018-01-24T20:08:03.113Z,2.80
2018-01-24T20:10:31.421Z,1.90
2018-01-24T20:12:59.706Z,3.00
2018-01-24T20:15:27.992Z,2.53
2018-01-24T20:17:56.310Z,2.60
2018-01-24T20:20:24.601Z,2.53
2018-01-24T20:22:52.905Z,2.85
2018-01-24T20:25:21.195Z,2.75
2018-01-24T20:27:49.453Z,2.70
2018-01-24T20:30:22.831Z,2.85
2018-01-24T20:33:02.141Z,3.17
2018-01-24T20:35:36.546Z,3.40
2018-01-24T20:38:05.632Z,3.20
2018-01-24T20:40:33.920Z,2.83
2018-01-24T20:43:02.361Z,3.10
2018-01-24T20:45:30.622Z,3.77
2018-01-24T20:47:59.950Z,3.57
2018-01-24T20:50:28.337Z,3.90
2018-01-24T20:52:59.152Z,3.70
2018-01-24T20:55:29.647Z,3.50
2018-01-24T20:57:58.792Z,3.60
2018-01-24T21:00:28.266Z,3.10
2018-01-24T21:03:00.894Z,3.10
2018-01-24T21:05:29.561Z,3.17
2018-01-24T21:07:57.893Z,3.20
2018-01-24T21:10:27.244Z,3.23
2018-01-24T21:12:55.650Z,2.80
2018-01-24T21:15:23.994Z,3.43
2018-01-24T21:17:52.298Z,3.20
2018-01-24T21:20:20.576Z,3.17
2018-01-24T21:22:48.884Z,2.80
2018-01-24T21:25:18.132Z,3.28
2018-01-24T21:27:46.435Z,3.27
2018-01-24T21:30:21.511Z,3.65
2018-01-24T21:33:02.601Z,3.30
2018-01-24T21:35:42.839Z,3.83
2018-01-24T21:38:11.143Z,3.30
2018-01-24T21:40:39.460Z,3.93
2018-01-24T21:43:07.733Z,3.27
2018-01-24T21:45:39.040Z,3.40
2018-01-24T21:48:07.302Z,3.57
2018-01-24T21:50:36.280Z,3.67
2018-01-24T21:53:05.990Z,3.50
2018-01-24T21:55:34.341Z,3.60
2018-01-24T21:58:02.711Z,3.40
2018-01-24T22:00:33.126Z,4.63
2018-01-24T22:03:01.417Z,3.57
2018-01-24T22:05:29.698Z,3.95
2018-01-24T22:07:58.055Z,3.67
2018-01-24T22:10:26.317Z,3.43
2018-01-24T22:12:54.601Z,3.80
2018-01-24T22:15:23.902Z,3.93
2018-01-24T22:17:52.277Z,3.33
2018-01-24T22:20:20.551Z,4.10
2018-01-24T22:22:48.806Z,4.10
2018-01-24T22:25:17.127Z,4.33
2018-01-24T22:27:45.394Z,3.50
2018-01-24T22:30:13.691Z,3.50
2018-01-24T22:32:41.957Z,3.60
2018-01-24T22:35:10.280Z,3.75
2018-01-24T22:37:38.566Z,4.30
2018-01-24T22:40:06.868Z,3.75
2018-01-24T22:42:35.126Z,4.47
2018-01-24T22:45:03.434Z,4.50
2018-01-24T22:47:31.754Z,4.37
2018-01-24T22:50:02.296Z,4.20
2018-01-24T22:52:30.543Z,4.47
2018-01-24T22:54:58.836Z,4.03
2018-01-24T22:57:27.139Z,4.27
2018-01-24T22:59:55.406Z,4.10
2018-01-24T23:02:23.720Z,4.10
2018-01-24T23:04:52.017Z,4.07
2018-01-24T23:07:20.284Z,4.50
2018-01-24T23:09:48.580Z,4.27
2018-01-24T23:12:16.928Z,4.90
2018-01-24T23:14:45.335Z,4.97
2018-01-24T23:17:14.116Z,4.87
2018-01-24T23:19:42.625Z,4.17
2018-01-24T23:22:11.108Z,4.60
2018-01-24T23:24:39.392Z,4.00
2018-01-24T23:27:07.961Z,4.70
2018-01-24T23:29:36.276Z,4.80
2018-01-24T23:32:04.918Z,4.05
2018-01-24T23:34:33.181Z,4.63
2018-01-24T23:37:01.453Z,4.27
2018-01-24T23:39:29.738Z,4.27
2018-01-24T23:41:58.139Z,4.20
2018-01-24T23:44:26.450Z,4.70
2018-01-24T23:46:54.759Z,4.10
2018-01-24T23:49:23.088Z,4.10
2018-01-24T23:51:51.369Z,3.80
2018-01-24T23:54:19.671Z,4.35
2018-01-24T23:56:47.969Z,4.80
2018-01-24T23:59:16.256Z,4.87
